createdAt,value
2019-03-15T00:00:01.438Z,76.54
2019-03-15T00:00:49.140Z,76.44
2019-03-15T00:01:33.447Z,76.57
2019-03-15T00:02:13.911Z,76.67
2019-03-15T00:02:55.276Z,77.11
2019-03-15T00:03:40.543Z,76.73
2019-03-15T00:04:20.886Z,76.39
2019-03-15T00:05:02.228Z,76.82
2019-03-15T00:05:43.575Z,77.34
2019-03-15T00:06:23.971Z,77.15
2019-03-15T00:07:04.790Z,76.39
2019-03-15T00:07:44.896Z,76.39
2019-03-15T00:08:25.335Z,76.39
2019-03-15T00:09:05.682Z,76.86
2019-03-15T00:09:46.083Z,76.35
2019-03-15T00:10:26.457Z,76.48
2019-03-15T00:11:06.937Z,76.64
2019-03-15T00:11:47.257Z,76.48
2019-03-15T00:12:27.655Z,76.77
2019-03-15T00:13:08.057Z,76.57
2019-03-15T00:13:48.413Z,76.1
2019-03-15T00:14:30.674Z,76.57
2019-03-15T00:15:11.034Z,76.35
2019-03-15T00:15:51.437Z,76.77
2019-03-15T00:16:33.489Z,76.92
2019-03-15T00:17:13.800Z,76.57
2019-03-15T00:17:54.231Z,76.96
2019-03-15T00:18:34.713Z,76.57
2019-03-15T00:19:15.077Z,76.39
2019-03-15T00:19:55.419Z,76.2
2019-03-15T00:20:35.890Z,76.48
2019-03-15T00:21:16.245Z,75.81
2019-03-15T00:21:56.601Z,76.77
2019-03-15T00:22:36.995Z,76.48
2019-03-15T00:23:17.443Z,76.1
2019-03-15T00:23:57.745Z,75.81
2019-03-15T00:24:38.207Z,76.39
2019-03-15T00:25:18.580Z,75.62
2019-03-15T00:25:58.968Z,75.91
2019-03-15T00:26:39.299Z,76.2
2019-03-15T00:27:19.690Z,76.67
2019-03-15T00:28:00.069Z,76.77
2019-03-15T00:28:40.536Z,76.77
2019-03-15T00:29:20.832Z,76.39
2019-03-15T00:30:01.301Z,75.81
2019-03-15T00:30:42.774Z,76.2
2019-03-15T00:31:24.748Z,76.57
2019-03-15T00:32:05.118Z,76.48
2019-03-15T00:32:45.590Z,76.86
2019-03-15T00:33:25.899Z,77.34
2019-03-15T00:34:08.155Z,77.06
2019-03-15T00:34:48.585Z,77.34
2019-03-15T00:35:28.953Z,76.96
2019-03-15T00:37:41.658Z,77.62
2019-03-15T00:38:22.558Z,77.3
2019-03-15T00:39:02.911Z,77.72
2019-03-15T00:39:43.359Z,77.59
2019-03-15T00:40:24.644Z,77.97
2019-03-15T00:41:05.039Z,78.58
2019-03-15T00:41:45.542Z,78.01
2019-03-15T00:42:26.040Z,77.59
2019-03-15T00:43:06.380Z,77.87
2019-03-15T00:43:49.312Z,78.3
2019-03-15T00:44:28.229Z,77.78
2019-03-15T00:45:08.934Z,77.97
2019-03-15T00:45:50.194Z,77.25
2019-03-15T00:46:30.585Z,77.49
2019-03-15T00:47:11.002Z,77.49
2019-03-15T00:47:52.173Z,78.35
2019-03-15T00:48:32.387Z,78.44
2019-03-15T00:49:12.827Z,78.64
2019-03-15T00:49:54.995Z,77.59
2019-03-15T00:50:35.311Z,77.87
2019-03-15T00:51:17.848Z,77.78
2019-03-15T00:51:58.163Z,78.25
2019-03-15T00:52:39.487Z,78.16
2019-03-15T00:53:19.894Z,78.16
2019-03-15T00:54:00.504Z,78.35
2019-03-15T00:54:42.836Z,78.92
2019-03-15T00:55:23.361Z,79.11
2019-03-15T00:56:03.753Z,79.3
2019-03-15T00:56:44.186Z,78.35
2019-03-15T00:57:25.511Z,78.54
2019-03-15T00:58:06.068Z,77.97
2019-03-15T00:58:46.412Z,78.16
2019-03-15T00:59:26.786Z,78.54
2019-03-15T01:00:09.331Z,77.69
2019-03-15T01:00:49.722Z,77.97
2019-03-15T01:01:30.112Z,77.2
2019-03-15T01:02:11.410Z,77.87
2019-03-15T01:02:50.927Z,77.97
2019-03-15T01:03:31.373Z,77.78
2019-03-15T01:04:11.832Z,77.78
2019-03-15T01:04:53.119Z,77.87
2019-03-15T01:05:35.340Z,77.87
2019-03-15T01:06:15.730Z,77.78
2019-03-15T01:06:56.082Z,77.2
2019-03-15T01:07:36.460Z,77.87
2019-03-15T01:09:51.362Z,77.97
2019-03-15T01:10:35.740Z,77.4
2019-03-15T01:11:16.140Z,78.44
2019-03-15T01:11:57.476Z,78.54
2019-03-15T01:12:38.004Z,77.69
2019-03-15T01:13:18.453Z,78.25
2019-03-15T01:13:58.777Z,78.25
2019-03-15T01:14:40.160Z,79.02
2019-03-15T01:15:22.686Z,78.16
2019-03-15T01:16:04.087Z,78.35
2019-03-15T01:16:44.507Z,77.87
2019-03-15T01:17:26.565Z,77.49
2019-03-15T01:18:06.230Z,77.4
2019-03-15T01:18:48.600Z,77.4
2019-03-15T01:19:29.837Z,77.87
2019-03-15T01:20:10.323Z,77.59
2019-03-15T01:20:52.520Z,77.49
2019-03-15T01:21:32.906Z,78.54
2019-03-15T01:22:13.322Z,78.73
2019-03-15T01:22:53.697Z,77.87
2019-03-15T01:23:34.294Z,76.92
2019-03-15T01:24:14.750Z,77.2
2019-03-15T01:24:55.205Z,77.78
2019-03-15T01:25:35.577Z,77.4
2019-03-15T01:26:15.933Z,77.59
2019-03-15T01:26:56.328Z,77.78
2019-03-15T01:27:36.745Z,77.4
2019-03-15T01:28:17.146Z,76.54
2019-03-15T01:28:58.486Z,76.73
2019-03-15T01:29:38.841Z,77.11
2019-03-15T01:30:19.313Z,77.87
2019-03-15T01:30:59.568Z,77.69
2019-03-15T01:31:39.961Z,77.87
2019-03-15T01:32:20.333Z,77.69
2019-03-15T01:33:00.773Z,77.78
2019-03-15T01:33:41.142Z,77.01
2019-03-15T01:34:21.724Z,77.2
2019-03-15T01:35:03.576Z,77.2
2019-03-15T01:35:43.989Z,77.4
2019-03-15T01:36:28.293Z,77.97
2019-03-15T01:37:10.562Z,78.06
2019-03-15T01:37:52.866Z,77.69
2019-03-15T01:38:37.913Z,77.78
2019-03-15T01:39:18.297Z,77.78
2019-03-15T01:40:00.766Z,77.87
2019-03-15T01:40:40.004Z,77.69
2019-03-15T01:41:20.495Z,77.87
2019-03-15T01:42:02.364Z,77.49
2019-03-15T01:42:45.709Z,77.49
2019-03-15T01:43:27.067Z,77.49
2019-03-15T01:44:08.125Z,77.01
2019-03-15T01:44:50.411Z,76.73
2019-03-15T01:45:34.595Z,76.82
2019-03-15T01:46:15.016Z,77.4
2019-03-15T01:46:57.259Z,77.01
2019-03-15T01:47:37.657Z,76.82
2019-03-15T01:48:19.147Z,77.4
2019-03-15T01:48:59.643Z,76.64
2019-03-15T01:49:40.012Z,76.73
2019-03-15T01:50:21.240Z,77.2
2019-03-15T01:51:01.594Z,77.87
2019-03-15T01:51:42.033Z,77.3
2019-03-15T01:52:24.200Z,76.82
2019-03-15T01:53:04.420Z,76.06
2019-03-15T01:53:44.792Z,76.35
2019-03-15T01:54:25.239Z,76.92
2019-03-15T01:55:05.593Z,77.01
2019-03-15T01:55:45.999Z,76.44
2019-03-15T01:56:28.391Z,76.54
2019-03-15T01:57:08.717Z,76.64
2019-03-15T01:57:49.101Z,76.06
2019-03-15T01:58:30.497Z,77.11
2019-03-15T01:59:14.406Z,76.82
2019-03-15T01:59:54.834Z,76.54
2019-03-15T02:01:25.158Z,76.25
2019-03-15T02:02:05.512Z,76.25
2019-03-15T02:02:47.051Z,75.68
2019-03-15T02:03:27.375Z,75.3
2019-03-15T02:04:11.054Z,75.01
2019-03-15T02:04:57.243Z,75.01
2019-03-15T02:05:37.691Z,74.82
2019-03-15T02:06:18.153Z,75.87
2019-03-15T02:06:59.553Z,75.87
2019-03-15T02:07:42.882Z,76.16
2019-03-15T02:08:23.242Z,75.87
2019-03-15T02:09:08.858Z,76.44
2019-03-15T02:09:46.014Z,75.01
2019-03-15T02:10:26.333Z,75.87
2019-03-15T02:11:11.537Z,76.54
2019-03-15T02:11:52.837Z,76.06
2019-03-15T02:12:33.255Z,76.16
2019-03-15T02:13:14.624Z,76.06
2019-03-15T02:13:55.029Z,75.68
2019-03-15T02:14:38.526Z,75.96
2019-03-15T02:15:19.826Z,75.78
2019-03-15T02:16:02.166Z,76.25
2019-03-15T02:16:42.479Z,76.82
2019-03-15T02:17:27.165Z,75.68
2019-03-15T02:18:07.778Z,76.16
2019-03-15T02:18:48.920Z,76.35
2019-03-15T02:19:29.380Z,75.87
2019-03-15T02:20:09.789Z,76.16
2019-03-15T02:20:50.171Z,76.44
2019-03-15T02:21:30.581Z,76.35
2019-03-15T02:22:11.861Z,75.2
2019-03-15T02:22:54.549Z,75.68
2019-03-15T02:23:35.055Z,76.35
2019-03-15T02:24:15.659Z,76.64
2019-03-15T02:24:55.984Z,75.01
2019-03-15T02:25:38.055Z,75.11
2019-03-15T02:26:20.239Z,75.11
2019-03-15T02:27:00.614Z,76.06
2019-03-15T02:27:42.702Z,75.96
2019-03-15T02:28:22.930Z,76.06
2019-03-15T02:29:03.309Z,75.4
2019-03-15T02:29:43.854Z,75.01
2019-03-15T02:30:24.142Z,75.4
2019-03-15T02:31:04.568Z,75.2
2019-03-15T02:31:44.957Z,74.82
2019-03-15T02:32:25.227Z,74.35
2019-03-15T02:33:06.156Z,74.44
2019-03-15T02:33:48.191Z,74.54
2019-03-15T02:34:30.484Z,74.44
2019-03-15T02:35:10.892Z,74.44
2019-03-15T02:35:51.251Z,74.82
2019-03-15T02:36:31.617Z,75.2
2019-03-15T02:37:12.073Z,75.15
2019-03-15T02:37:52.713Z,74.67
2019-03-15T02:38:36.606Z,75.24
2019-03-15T02:39:17.049Z,74.48
2019-03-15T02:39:59.122Z,74.67
2019-03-15T02:40:44.148Z,74.73
2019-03-15T02:41:24.513Z,74.63
2019-03-15T02:42:04.937Z,74.73
2019-03-15T02:42:45.498Z,74.44
2019-03-15T02:43:25.679Z,74.54
2019-03-15T02:44:06.037Z,74.92
2019-03-15T02:44:46.458Z,75.01
2019-03-15T02:45:26.846Z,75.68
2019-03-15T02:46:07.256Z,75.4
2019-03-15T02:46:47.732Z,75.11
2019-03-15T02:47:29.991Z,75.78
2019-03-15T02:48:10.405Z,75.87
2019-03-15T02:48:50.756Z,75.2
2019-03-15T02:49:32.538Z,75.4
2019-03-15T02:51:31.897Z,76.16
2019-03-15T02:52:12.364Z,75.2
2019-03-15T02:52:52.801Z,75.4
2019-03-15T02:53:33.189Z,75.3
2019-03-15T02:54:13.607Z,75.2
2019-03-15T02:54:54.608Z,75.3
2019-03-15T02:55:34.439Z,75.4
2019-03-15T02:56:15.119Z,75.87
2019-03-15T02:56:55.325Z,75.59
2019-03-15T02:57:35.970Z,75.01
2019-03-15T02:58:16.024Z,75.3
2019-03-15T02:58:58.117Z,75.11
2019-03-15T02:59:38.530Z,75.2
2019-03-15T03:00:18.918Z,76.16
2019-03-15T03:00:59.301Z,76.06
2019-03-15T03:01:41.968Z,75.11
2019-03-15T03:02:22.226Z,75.78
2019-03-15T03:03:02.658Z,76.44
2019-03-15T03:03:43.007Z,76.73
2019-03-15T03:04:23.379Z,75.78
2019-03-15T03:05:03.778Z,76.16
2019-03-15T03:05:44.185Z,76.54
2019-03-15T03:06:24.531Z,77.11
2019-03-15T03:07:04.920Z,77.01
2019-03-15T03:07:45.311Z,77.3
2019-03-15T03:08:25.720Z,77.59
2019-03-15T03:09:06.147Z,77.3
2019-03-15T03:09:46.517Z,77.4
2019-03-15T03:10:26.946Z,77.01
2019-03-15T03:11:07.372Z,77.11
2019-03-15T03:11:47.792Z,76.54
2019-03-15T03:12:28.317Z,77.01
2019-03-15T03:13:08.768Z,77.01
2019-03-15T03:13:49.147Z,77.59
2019-03-15T03:14:30.924Z,77.49
2019-03-15T03:15:09.979Z,76.73
2019-03-15T03:15:51.883Z,76.73
2019-03-15T03:16:30.798Z,77.17
2019-03-15T03:17:11.179Z,77.45
2019-03-15T03:17:51.739Z,77.83
2019-03-15T03:18:32.149Z,77.83
2019-03-15T03:19:12.568Z,78.41
2019-03-15T03:19:54.073Z,78.41
2019-03-15T03:20:33.380Z,78.22
2019-03-15T03:21:15.172Z,77.74
2019-03-15T03:21:54.226Z,77.55
2019-03-15T03:22:36.003Z,77.36
2019-03-15T03:23:15.046Z,77.74
2019-03-15T03:23:55.683Z,77.26
2019-03-15T03:24:35.869Z,77.83
2019-03-15T03:25:17.196Z,78.5
2019-03-15T03:25:56.707Z,78.22
2019-03-15T03:26:37.185Z,78.59
2019-03-15T03:27:17.519Z,78.59
2019-03-15T03:27:57.934Z,77.74
2019-03-15T03:28:38.353Z,77.64
2019-03-15T03:29:19.934Z,78.03
2019-03-15T03:29:59.176Z,79.11
2019-03-15T03:30:39.558Z,77.78
2019-03-15T03:31:20.007Z,77.87
2019-03-15T03:32:00.383Z,77.07
2019-03-15T03:32:44.031Z,77.17
2019-03-15T03:33:21.187Z,77.45
2019-03-15T03:34:01.613Z,76.88
2019-03-15T03:34:41.997Z,76.88
2019-03-15T03:35:22.404Z,77.74
2019-03-15T03:36:02.901Z,77.93
2019-03-15T03:36:43.214Z,77.83
2019-03-15T03:37:23.626Z,77.93
2019-03-15T03:38:04.041Z,78.22
2019-03-15T03:38:44.453Z,78.5
2019-03-15T03:39:24.853Z,78.88
2019-03-15T03:40:05.324Z,79.17
2019-03-15T03:40:45.650Z,79.07
2019-03-15T03:41:26.878Z,78.88
2019-03-15T03:42:07.295Z,78.59
2019-03-15T03:42:47.829Z,78.69
2019-03-15T03:43:28.224Z,79.07
2019-03-15T03:44:08.688Z,78.31
2019-03-15T03:44:49.041Z,78.69
2019-03-15T03:45:29.433Z,78.78
2019-03-15T03:46:09.873Z,79.36
2019-03-15T03:46:50.238Z,79.93
2019-03-15T03:47:32.653Z,79.55
2019-03-15T03:48:11.066Z,79.55
2019-03-15T03:48:51.485Z,79.74
2019-03-15T03:49:31.903Z,79.83
2019-03-15T03:50:12.343Z,79.55
2019-03-15T03:50:52.803Z,80.22
2019-03-15T03:51:33.177Z,80.31
2019-03-15T03:52:13.514Z,79.83
2019-03-15T03:52:53.921Z,80.31
2019-03-15T03:53:34.329Z,80.41
2019-03-15T03:54:14.739Z,80.02
2019-03-15T03:54:55.176Z,80.69
2019-03-15T03:55:35.622Z,80.88
2019-03-15T03:56:15.986Z,81.17
2019-03-15T03:56:56.408Z,81.36
2019-03-15T03:57:36.841Z,80.79
2019-03-15T03:58:17.239Z,81.26
2019-03-15T03:58:57.674Z,81.26
2019-03-15T03:59:38.416Z,81.36
2019-03-15T04:00:18.834Z,81.93
2019-03-15T04:00:59.219Z,81.65
2019-03-15T04:01:39.628Z,81.74
2019-03-15T04:02:19.997Z,81.74
2019-03-15T04:03:00.616Z,81.93
2019-03-15T04:03:41.009Z,81.46
2019-03-15T04:04:21.400Z,81.36
2019-03-15T04:05:01.813Z,81.26
2019-03-15T04:05:42.552Z,81.07
2019-03-15T04:06:23.072Z,80.79
2019-03-15T04:07:03.495Z,81.46
2019-03-15T04:07:43.902Z,80.88
2019-03-15T04:08:24.325Z,80.98
2019-03-15T04:09:04.692Z,81.07
2019-03-15T04:09:45.127Z,81.26
2019-03-15T04:10:25.504Z,81.26
2019-03-15T04:11:05.896Z,81.93
2019-03-15T04:11:55.061Z,81.93
2019-03-15T04:12:26.658Z,81.93
2019-03-15T04:13:07.039Z,82.5
2019-03-15T04:13:47.588Z,82.69
2019-03-15T04:14:27.895Z,81.74
2019-03-15T04:15:08.327Z,82.5
2019-03-15T04:15:48.801Z,81.36
2019-03-15T04:16:29.246Z,81.26
2019-03-15T04:17:09.863Z,81.07
2019-03-15T04:17:49.912Z,81.07
2019-03-15T04:18:47.878Z,81.07
2019-03-15T04:19:28.553Z,81.93
2019-03-15T04:20:08.992Z,82.5
2019-03-15T04:20:49.336Z,82.5
2019-03-15T04:21:29.773Z,81.65
2019-03-15T04:22:12.837Z,82.5
2019-03-15T04:22:55.445Z,83.55
2019-03-15T04:23:37.793Z,83.65
2019-03-15T04:24:14.907Z,82.69
2019-03-15T04:24:56.235Z,82.21
2019-03-15T04:25:36.651Z,82.79
2019-03-15T04:26:18.965Z,83.07
2019-03-15T04:27:01.245Z,83.17
2019-03-15T04:27:41.530Z,84.22
2019-03-15T04:28:22.149Z,83.93
2019-03-15T04:29:02.633Z,84.22
2019-03-15T05:10:35.446Z,94.56
2019-03-15T05:11:35.399Z,94.56
2019-03-15T05:12:36.680Z,94.37
2019-03-15T05:13:36.454Z,95.22
2019-03-15T05:15:31.615Z,96.46
2019-03-15T05:16:16.754Z,95.22
2019-03-15T05:16:54.687Z,96.27
2019-03-15T05:17:35.761Z,96.84
2019-03-15T05:18:16.487Z,96.17
2019-03-15T05:18:57.799Z,96.46
2019-03-15T05:19:38.373Z,96.17
2019-03-15T05:20:21.114Z,95.75
2019-03-15T05:21:01.183Z,95.75
2019-03-15T05:21:41.798Z,95.46
2019-03-15T05:22:23.544Z,95.65
2019-03-15T05:23:16.967Z,95.17
2019-03-15T05:33:01.406Z,95.17
2019-03-15T05:33:44.699Z,95.27
2019-03-15T05:34:24.927Z,96.32
2019-03-15T05:35:05.289Z,96.03
2019-03-15T05:35:45.691Z,96.6
2019-03-15T05:36:26.185Z,96.12
2019-03-15T05:37:06.558Z,96.22
2019-03-15T05:37:46.943Z,96.8
2019-03-15T05:38:27.276Z,97.08
2019-03-15T05:39:07.647Z,97.56
2019-03-15T05:39:48.094Z,97.08
2019-03-15T05:40:28.476Z,96.89
2019-03-15T05:41:08.811Z,96.98
2019-03-15T05:41:49.200Z,96.22
2019-03-15T05:42:29.792Z,96.8
2019-03-15T05:43:10.047Z,97.46
2019-03-15T05:43:52.981Z,97.84
2019-03-15T05:44:30.878Z,97.65
2019-03-15T05:45:11.234Z,97.84
2019-03-15T05:45:51.617Z,97.75
2019-03-15T05:46:31.985Z,96.51
2019-03-15T05:47:12.392Z,96.6
2019-03-15T05:47:52.771Z,96.41
2019-03-15T05:48:34.224Z,97.36
2019-03-15T05:49:14.971Z,97.84
2019-03-15T05:49:55.326Z,97.56
2019-03-15T05:50:35.757Z,97.36
2019-03-15T05:51:16.130Z,97.27
2019-03-15T05:51:56.493Z,97.65
2019-03-15T05:52:36.933Z,96.89
2019-03-15T05:53:17.259Z,98.32
2019-03-15T05:53:57.684Z,97.56
2019-03-15T05:54:38.090Z,96.51
2019-03-15T05:55:18.492Z,96.03
2019-03-15T05:55:58.837Z,96.22
2019-03-15T05:56:39.237Z,96.41
2019-03-15T05:57:19.579Z,96.41
2019-03-15T05:57:59.997Z,95.75
2019-03-15T05:58:40.369Z,96.41
2019-03-15T05:59:20.769Z,97.56
2019-03-15T06:00:01.166Z,97.27
2019-03-15T06:00:42.157Z,96.8
2019-03-15T06:01:22.600Z,96.8
2019-03-15T06:02:14.361Z,96.98
2019-03-15T06:02:55.523Z,96.8
2019-03-15T06:03:47.741Z,96.98
2019-03-15T06:04:16.361Z,96.41
2019-03-15T06:04:56.719Z,96.6
2019-03-15T06:07:09.888Z,99.18
2019-03-15T06:07:50.349Z,98.89
2019-03-15T06:08:34.245Z,98.79
2019-03-15T06:09:14.627Z,99.37
2019-03-15T06:09:55.002Z,99.18
2019-03-15T06:10:35.398Z,98.89
2019-03-15T06:11:15.798Z,99.99
2019-03-15T06:11:56.205Z,99.84
2019-03-15T06:12:36.588Z,99.94
2019-03-15T06:13:16.943Z,99.65
2019-03-15T06:13:57.428Z,99.94
2019-03-15T06:14:38.772Z,99.84
2019-03-15T06:15:21.001Z,99.94
2019-03-15T06:16:01.990Z,98.79
2019-03-15T06:16:42.454Z,99.99
2019-03-15T06:17:22.914Z,99.94
2019-03-15T06:18:06.417Z,99.55
2019-03-15T06:18:44.598Z,99.08
2019-03-15T06:19:25.021Z,99.99
2019-03-15T06:20:19.271Z,99.99
2019-03-15T06:20:59.639Z,99.99
2019-03-15T06:21:40.037Z,99.99
2019-03-15T06:22:20.416Z,99.99
2019-03-15T06:24:18.427Z,99.99
2019-03-15T06:24:58.174Z,99.99
2019-03-15T06:25:38.664Z,99.99
2019-03-15T06:26:19.211Z,99.99
2019-03-15T06:26:59.587Z,99.99
2019-03-15T06:27:40.006Z,99.99
2019-03-15T06:28:20.797Z,99.99
2019-03-15T06:29:01.733Z,99.99
2019-03-15T06:29:41.707Z,99.99
2019-03-15T06:30:22.204Z,99.99
2019-03-15T06:31:04.250Z,99.99
2019-03-15T06:31:44.786Z,99.99
2019-03-15T06:32:25.320Z,99.99
2019-03-15T06:33:05.684Z,99.99
2019-03-15T06:33:46.101Z,99.99
2019-03-15T06:34:26.526Z,99.99
2019-03-15T06:35:07.107Z,99.99
2019-03-15T06:35:47.415Z,99.99
2019-03-15T06:36:27.740Z,99.99
2019-03-15T06:37:08.138Z,99.99
2019-03-15T06:37:48.553Z,99.99
2019-03-15T06:39:43.274Z,99.99
2019-03-15T06:40:23.466Z,99.99
2019-03-15T06:41:03.873Z,99.99
2019-03-15T06:41:44.296Z,99.99
2019-03-15T06:42:24.725Z,99.99
2019-03-15T06:43:05.116Z,99.99
2019-03-15T06:43:45.622Z,99.99
2019-03-15T06:44:27.328Z,99.99
2019-03-15T06:45:07.560Z,99.99
2019-03-15T06:45:49.716Z,99.99
2019-03-15T06:46:30.643Z,99.99
2019-03-15T06:47:11.032Z,99.99
2019-03-15T06:47:51.412Z,99.99
2019-03-15T06:50:07.649Z,99.99
2019-03-15T06:50:47.823Z,99.99
2019-03-15T06:51:29.036Z,99.99
2019-03-15T06:52:09.482Z,99.99
2019-03-15T06:52:49.856Z,99.99
2019-03-15T06:53:30.359Z,99.99
2019-03-15T06:54:12.214Z,99.99
2019-03-15T06:54:52.609Z,99.99
2019-03-15T06:55:33.395Z,99.99
2019-03-15T06:56:14.450Z,99.99
2019-03-15T06:56:54.889Z,99.99
2019-03-15T06:57:36.105Z,99.99
2019-03-15T06:58:16.491Z,99.99
2019-03-15T06:58:57.226Z,99.99
2019-03-15T06:59:37.885Z,99.99
2019-03-15T07:00:21.253Z,99.99
2019-03-15T07:01:01.716Z,99.99
2019-03-15T07:01:42.082Z,99.99
2019-03-15T07:02:23.875Z,99.99
2019-03-15T07:03:04.301Z,99.99
2019-03-15T07:03:44.758Z,99.99
2019-03-15T07:04:28.864Z,99.99
2019-03-15T07:05:11.783Z,99.99
2019-03-15T07:05:49.714Z,99.99
2019-03-15T07:06:30.273Z,99.99
2019-03-15T07:07:10.732Z,99.99
2019-03-15T07:07:51.165Z,99.99
2019-03-15T07:08:31.546Z,99.99
2019-03-15T07:09:11.965Z,99.99
2019-03-15T07:09:53.641Z,99.99
2019-03-15T07:10:34.208Z,99.99
2019-03-15T07:11:14.653Z,99.99
2019-03-15T07:12:08.576Z,99.99
2019-03-15T07:12:35.613Z,99.99
2019-03-15T07:13:15.956Z,99.99
2019-03-15T07:13:56.466Z,99.99
2019-03-15T07:16:18.420Z,99.99
2019-03-15T07:16:59.069Z,99.99
2019-03-15T07:17:39.580Z,99.99
2019-03-15T07:18:20.532Z,99.99
2019-03-15T07:19:00.838Z,99.99
2019-03-15T07:19:41.319Z,99.99
2019-03-15T07:20:21.733Z,99.99
2019-03-15T07:21:02.065Z,99.99
2019-03-15T07:21:42.495Z,99.99
2019-03-15T07:22:24.538Z,99.99
2019-03-15T07:23:04.968Z,99.99
2019-03-15T07:23:45.379Z,99.99
2019-03-15T07:24:25.903Z,99.99
2019-03-15T07:25:07.328Z,99.99
2019-03-15T07:25:47.864Z,99.99
2019-03-15T07:26:30.251Z,99.99
2019-03-15T07:27:13.496Z,99.99
2019-03-15T07:27:53.639Z,99.99
2019-03-15T07:28:33.581Z,99.99
2019-03-15T07:29:14.432Z,99.99
2019-03-15T07:29:56.326Z,99.99
2019-03-15T07:30:37.970Z,99.99
2019-03-15T07:31:18.420Z,99.99
2019-03-15T07:31:59.202Z,99.99
2019-03-15T07:32:40.805Z,99.99
2019-03-15T07:33:23.812Z,99.99
2019-03-15T07:34:05.068Z,99.99
2019-03-15T07:34:45.834Z,99.99
2019-03-15T07:36:43.180Z,99.99
2019-03-15T07:37:24.940Z,99.99
2019-03-15T07:38:06.257Z,99.99
2019-03-15T07:38:46.536Z,99.99
2019-03-15T07:39:28.348Z,99.99
2019-03-15T07:40:07.975Z,99.99
2019-03-15T07:40:48.724Z,99.99
2019-03-15T07:41:30.199Z,99.99
2019-03-15T07:42:10.026Z,99.99
2019-03-15T07:42:50.592Z,99.99
2019-03-15T07:43:31.666Z,99.99
2019-03-15T07:44:13.745Z,99.99
2019-03-15T07:44:54.929Z,99.99
2019-03-15T07:45:34.901Z,99.99
2019-03-15T07:46:16.197Z,99.99
2019-03-15T07:46:56.288Z,99.99
2019-03-15T07:47:37.305Z,99.99
2019-03-15T07:48:22.605Z,99.99
2019-03-15T07:48:58.406Z,99.99
2019-03-15T07:49:41.886Z,99.99
2019-03-15T07:50:22.717Z,99.99
2019-03-15T07:51:03.744Z,99.99
2019-03-15T07:51:44.212Z,99.99
2019-03-15T07:52:24.593Z,99.99
2019-03-15T07:53:05.145Z,99.99
2019-03-15T07:53:45.764Z,99.99
2019-03-15T07:54:37.334Z,99.99
2019-03-15T07:55:08.310Z,99.99
2019-03-15T07:55:49.216Z,99.99
2019-03-15T07:56:31.981Z,99.99
2019-03-15T07:57:12.782Z,99.99
2019-03-15T07:57:54.216Z,99.99
2019-03-15T07:58:35.493Z,99.99
2019-03-15T07:59:16.117Z,99.99
2019-03-15T07:59:56.821Z,99.99
2019-03-15T08:00:37.178Z,99.99
2019-03-15T08:01:18.881Z,99.99
2019-03-15T08:01:59.393Z,99.99
2019-03-15T08:02:39.923Z,99.99
2019-03-15T08:03:21.627Z,99.99
2019-03-15T08:04:16.120Z,99.99
2019-03-15T08:04:46.881Z,99.99
2019-03-15T08:05:27.433Z,99.99
2019-03-15T08:06:08.207Z,99.99
2019-03-15T08:06:50.286Z,99.99
2019-03-15T08:07:36.006Z,99.99
2019-03-15T08:08:15.665Z,99.99
2019-03-15T08:09:02.021Z,99.99
2019-03-15T08:09:44.099Z,99.99
2019-03-15T08:10:24.444Z,99.99
2019-03-15T08:11:05.089Z,99.99
2019-03-15T08:11:48.387Z,99.99
2019-03-15T08:12:30.595Z,99.99
2019-03-15T08:13:11.691Z,99.99
2019-03-15T08:13:53.697Z,99.99
2019-03-15T08:14:35.160Z,99.99
2019-03-15T08:15:16.786Z,99.99
2019-03-15T08:15:57.818Z,99.99
2019-03-15T08:16:40.968Z,99.99
2019-03-15T08:17:23.411Z,99.99
2019-03-15T08:18:05.513Z,99.99
2019-03-15T08:18:49.570Z,99.99
2019-03-15T08:19:30.023Z,99.99
2019-03-15T08:20:13.857Z,99.99
2019-03-15T08:20:57.843Z,99.99
2019-03-15T08:21:38.289Z,99.99
2019-03-15T08:22:19.637Z,99.99
2019-03-15T08:23:01.076Z,99.99
2019-03-15T08:23:41.652Z,99.99
2019-03-15T08:24:22.083Z,99.99
2019-03-15T08:25:02.801Z,99.99
2019-03-15T08:25:45.422Z,99.99
2019-03-15T08:26:29.860Z,99.99
2019-03-15T08:27:07.590Z,99.99
2019-03-15T08:27:50.130Z,99.99
2019-03-15T08:28:31.259Z,99.99
2019-03-15T08:29:13.894Z,99.99
2019-03-15T08:29:57.804Z,99.99
2019-03-15T08:30:40.071Z,99.99
2019-03-15T08:31:35.164Z,99.99
2019-03-15T08:32:16.531Z,99.99
2019-03-15T08:33:09.400Z,99.99
2019-03-15T08:33:41.155Z,99.99
2019-03-15T08:34:23.913Z,99.99
2019-03-15T08:35:05.634Z,99.99
2019-03-15T08:35:48.723Z,99.99
2019-03-15T08:36:29.883Z,99.99
2019-03-15T08:37:12.965Z,99.99
2019-03-15T08:37:53.383Z,99.99
2019-03-15T08:38:46.608Z,99.99
2019-03-15T08:39:17.081Z,99.99
2019-03-15T08:39:57.606Z,99.99
2019-03-15T08:40:38.875Z,99.99
2019-03-15T08:41:19.991Z,99.99
2019-03-15T08:42:07.938Z,99.99
2019-03-15T08:42:50.361Z,99.99
2019-03-15T08:43:30.690Z,99.99
2019-03-15T08:44:14.162Z,99.99
2019-03-15T08:44:55.642Z,99.99
2019-03-15T08:45:39.338Z,99.99
2019-03-15T08:46:19.800Z,99.99
2019-03-15T08:47:00.851Z,99.99
2019-03-15T08:47:46.802Z,99.99
2019-03-15T08:48:32.103Z,99.99
2019-03-15T08:49:20.069Z,99.99
2019-03-15T08:50:01.684Z,99.99
2019-03-15T08:50:42.543Z,99.99
2019-03-15T08:51:28.049Z,99.99
2019-03-15T08:52:08.539Z,99.99
2019-03-15T08:52:54.524Z,99.99
2019-03-15T08:53:36.178Z,99.99
2019-03-15T08:54:20.905Z,99.99
2019-03-15T08:55:05.330Z,99.99
2019-03-15T08:55:46.314Z,99.99
2019-03-15T08:56:28.795Z,99.99
2019-03-15T08:57:09.215Z,99.99
2019-03-15T08:57:53.723Z,99.99
2019-03-15T08:58:34.968Z,99.99
2019-03-15T08:59:17.043Z,99.99
2019-03-15T08:59:59.161Z,99.99
2019-03-15T09:00:44.401Z,99.99
2019-03-15T09:01:25.373Z,99.99
2019-03-15T09:02:05.471Z,99.99
2019-03-15T09:02:45.922Z,99.99
2019-03-15T09:03:28.381Z,99.99
2019-03-15T09:04:07.349Z,99.99
2019-03-15T09:04:50.287Z,99.99
2019-03-15T09:05:29.432Z,99.99
2019-03-15T09:06:10.184Z,99.99
2019-03-15T09:06:54.730Z,99.99
2019-03-15T09:07:35.114Z,99.99
2019-03-15T09:08:17.491Z,99.99
2019-03-15T09:08:58.048Z,99.99
2019-03-15T09:09:40.528Z,99.99
2019-03-15T09:10:23.990Z,99.99
2019-03-15T09:11:04.939Z,99.99
2019-03-15T09:11:46.253Z,99.99
2019-03-15T09:12:29.202Z,99.99
2019-03-15T09:13:11.451Z,99.99
2019-03-15T09:13:52.979Z,99.99
2019-03-15T09:14:33.675Z,99.99
2019-03-15T09:15:14.188Z,99.99
2019-03-15T09:15:55.666Z,99.99
2019-03-15T09:16:39.435Z,99.99
2019-03-15T09:17:21.800Z,99.99
2019-03-15T09:18:05.769Z,99.99
2019-03-15T09:18:47.122Z,99.99
2019-03-15T09:19:27.688Z,99.99
2019-03-15T09:20:09.775Z,99.99
2019-03-15T09:20:50.289Z,99.99
2019-03-15T09:21:33.405Z,99.99
2019-03-15T09:22:13.763Z,99.99
2019-03-15T09:22:54.167Z,99.99
2019-03-15T09:23:36.401Z,99.99
2019-03-15T09:24:17.008Z,99.99
2019-03-15T09:24:59.243Z,99.99
2019-03-15T09:25:40.550Z,99.99
2019-03-15T09:26:21.301Z,99.99
2019-03-15T09:27:02.303Z,99.99
2019-03-15T09:27:45.517Z,99.99
2019-03-15T09:28:25.221Z,99.99
2019-03-15T09:29:05.827Z,99.99
2019-03-15T09:29:46.283Z,99.99
2019-03-15T09:30:26.573Z,99.99
2019-03-15T09:31:07.613Z,99.99
2019-03-15T09:31:48.619Z,99.99
2019-03-15T09:32:29.121Z,99.99
2019-03-15T09:33:11.060Z,99.99
2019-03-15T11:08:27.335Z,99.99
2019-03-15T11:09:08.384Z,99.99
2019-03-15T11:09:51.305Z,99.99
2019-03-15T11:10:31.680Z,99.99
2019-03-15T11:11:14.072Z,99.99
2019-03-15T11:11:55.228Z,99.99
2019-03-15T11:12:37.129Z,99.99
2019-03-15T11:13:21.414Z,99.99
2019-03-15T11:14:01.800Z,99.99
2019-03-15T11:14:45.593Z,99.99
2019-03-15T11:15:31.811Z,99.99
2019-03-15T11:16:15.907Z,99.99
2019-03-15T11:16:58.639Z,99.99
2019-03-15T11:17:40.975Z,99.99
2019-03-15T11:18:23.400Z,99.99
2019-03-15T11:19:03.732Z,99.99
2019-03-15T11:19:47.710Z,99.99
2019-03-15T11:20:29.984Z,99.99
2019-03-15T11:21:10.386Z,99.99
2019-03-15T11:21:52.418Z,99.99
2019-03-15T11:22:34.766Z,99.99
2019-03-15T11:23:17.241Z,99.99
2019-03-15T11:23:58.757Z,99.99
2019-03-15T11:24:39.469Z,99.99
2019-03-15T11:25:19.948Z,99.99
2019-03-15T11:26:13.276Z,99.99
2019-03-15T11:26:49.712Z,99.99
2019-03-15T11:27:32.551Z,99.99
2019-03-15T11:28:13.534Z,99.99
2019-03-15T11:28:54.132Z,99.99
2019-03-15T11:29:36.121Z,99.99
2019-03-15T11:30:17.474Z,99.99
2019-03-15T11:31:00.770Z,99.99
2019-03-15T11:31:40.539Z,99.99